sensor_id;sensor_type;location;lat;lon;timestamp;P1;durP1;ratioP1;P2;durP2;ratioP2
46110;SDS011;31849;55.992;37.252;2022-07-29T00:01:57;7.68;;;2.05;;
46110;SDS011;31849;55.992;37.252;2022-07-29T00:07:00;3.22;;;2.05;;
46110;SDS011;31849;55.992;37.252;2022-07-29T00:12:04;3.92;;;2.00;;
46110;SDS011;31849;55.992;37.252;2022-07-29T00:17:11;4.60;;;2.20;;
46110;SDS011;31849;55.992;37.252;2022-07-29T00:22:19;6.50;;;2.33;;
46110;SDS011;31849;55.992;37.252;2022-07-29T00:27:23;5.50;;;2.15;;
46110;SDS011;31849;55.992;37.252;2022-07-29T00:32:28;2.55;;;1.85;;
46110;SDS011;31849;55.992;37.252;2022-07-29T00:37:31;7.47;;;1.85;;
46110;SDS011;31849;55.992;37.252;2022-07-29T00:42:41;3.10;;;1.92;;
46110;SDS011;31849;55.992;37.252;2022-07-29T00:47:46;4.55;;;2.05;;
46110;SDS011;31849;55.992;37.252;2022-07-29T00:52:50;6.85;;;2.70;;
46110;SDS011;31849;55.992;37.252;2022-07-29T00:57:55;8.05;;;2.42;;
46110;SDS011;31849;55.992;37.252;2022-07-29T01:03:01;9.23;;;3.38;;
46110;SDS011;31849;55.992;37.252;2022-07-29T01:08:05;11.45;;;2.53;;
46110;SDS011;31849;55.992;37.252;2022-07-29T01:13:09;3.65;;;2.20;;
46110;SDS011;31849;55.992;37.252;2022-07-29T01:18:16;7.68;;;2.50;;
46110;SDS011;31849;55.992;37.252;2022-07-29T01:23:40;4.22;;;2.72;;
46110;SDS011;31849;55.992;37.252;2022-07-29T01:28:59;5.00;;;2.22;;
46110;SDS011;31849;55.992;37.252;2022-07-29T01:34:09;5.00;;;2.20;;
46110;SDS011;31849;55.992;37.252;2022-07-29T01:39:18;7.75;;;3.03;;
46110;SDS011;31849;55.992;37.252;2022-07-29T01:44:29;6.72;;;2.70;;
46110;SDS011;31849;55.992;37.252;2022-07-29T01:49:35;3.50;;;2.10;;
46110;SDS011;31849;55.992;37.252;2022-07-29T01:54:42;6.07;;;2.70;;
46110;SDS011;31849;55.992;37.252;2022-07-29T01:59:51;6.47;;;2.25;;
46110;SDS011;31849;55.992;37.252;2022-07-29T02:04:56;5.30;;;2.30;;
46110;SDS011;31849;55.992;37.252;2022-07-29T02:10:03;3.70;;;1.90;;
46110;SDS011;31849;55.992;37.252;2022-07-29T02:15:10;5.13;;;2.40;;
46110;SDS011;31849;55.992;37.252;2022-07-29T02:20:16;4.90;;;2.40;;
46110;SDS011;31849;55.992;37.252;2022-07-29T02:25:20;9.02;;;2.55;;
46110;SDS011;31849;55.992;37.252;2022-07-29T02:30:39;7.75;;;2.20;;
46110;SDS011;31849;55.992;37.252;2022-07-29T02:35:45;7.03;;;2.40;;
46110;SDS011;31849;55.992;37.252;2022-07-29T02:40:49;3.58;;;2.63;;
46110;SDS011;31849;55.992;37.252;2022-07-29T02:45:56;4.30;;;2.10;;
46110;SDS011;31849;55.992;37.252;2022-07-29T02:51:05;5.50;;;2.15;;
46110;SDS011;31849;55.992;37.252;2022-07-29T02:56:31;6.18;;;2.30;;
46110;SDS011;31849;55.992;37.252;2022-07-29T03:01:41;7.18;;;2.08;;
46110;SDS011;31849;55.992;37.252;2022-07-29T03:06:46;8.27;;;2.15;;
46110;SDS011;31849;55.992;37.252;2022-07-29T03:11:53;5.93;;;1.92;;
46110;SDS011;31849;55.992;37.252;2022-07-29T03:16:59;6.18;;;2.10;;
46110;SDS011;31849;55.992;37.252;2022-07-29T03:22:03;3.90;;;2.05;;
46110;SDS011;31849;55.992;37.252;2022-07-29T03:27:07;5.43;;;1.70;;
46110;SDS011;31849;55.992;37.252;2022-07-29T03:32:11;5.25;;;1.90;;
46110;SDS011;31849;55.992;37.252;2022-07-29T03:37:24;3.92;;;1.67;;
46110;SDS011;31849;55.992;37.252;2022-07-29T03:42:30;5.30;;;1.73;;
46110;SDS011;31849;55.992;37.252;2022-07-29T03:47:37;5.82;;;1.73;;
46110;SDS011;31849;55.992;37.252;2022-07-29T03:52:52;5.22;;;1.63;;
46110;SDS011;31849;55.992;37.252;2022-07-29T03:57:56;6.57;;;1.70;;
46110;SDS011;31849;55.992;37.252;2022-07-29T04:03:01;5.28;;;1.60;;
46110;SDS011;31849;55.992;37.252;2022-07-29T04:08:11;5.00;;;1.65;;
46110;SDS011;31849;55.992;37.252;2022-07-29T04:13:14;3.83;;;1.50;;
46110;SDS011;31849;55.992;37.252;2022-07-29T04:18:19;3.67;;;1.50;;
46110;SDS011;31849;55.992;37.252;2022-07-29T04:23:23;4.70;;;1.50;;
46110;SDS011;31849;55.992;37.252;2022-07-29T04:28:28;5.32;;;1.40;;
46110;SDS011;31849;55.992;37.252;2022-07-29T04:33:32;3.55;;;1.88;;
46110;SDS011;31849;55.992;37.252;2022-07-29T04:38:36;7.55;;;1.40;;
46110;SDS011;31849;55.992;37.252;2022-07-29T04:43:40;4.20;;;1.50;;
46110;SDS011;31849;55.992;37.252;2022-07-29T04:48:46;3.10;;;1.83;;
46110;SDS011;31849;55.992;37.252;2022-07-29T04:53:49;4.72;;;1.60;;
46110;SDS011;31849;55.992;37.252;2022-07-29T04:58:53;3.63;;;1.77;;
46110;SDS011;31849;55.992;37.252;2022-07-29T05:03:58;4.28;;;1.65;;
46110;SDS011;31849;55.992;37.252;2022-07-29T05:09:02;3.15;;;1.70;;
46110;SDS011;31849;55.992;37.252;2022-07-29T05:14:07;4.40;;;1.73;;
46110;SDS011;31849;55.992;37.252;2022-07-29T05:19:12;3.83;;;2.05;;
46110;SDS011;31849;55.992;37.252;2022-07-29T05:24:17;5.18;;;1.60;;
46110;SDS011;31849;55.992;37.252;2022-07-29T05:29:20;3.15;;;1.55;;
46110;SDS011;31849;55.992;37.252;2022-07-29T05:34:46;4.03;;;1.60;;
46110;SDS011;31849;55.992;37.252;2022-07-29T05:39:52;5.55;;;1.85;;
46110;SDS011;31849;55.992;37.252;2022-07-29T05:44:58;3.67;;;1.77;;
46110;SDS011;31849;55.992;37.252;2022-07-29T05:50:03;3.65;;;1.52;;
46110;SDS011;31849;55.992;37.252;2022-07-29T05:55:07;2.45;;;1.60;;
46110;SDS011;31849;55.992;37.252;2022-07-29T06:00:11;3.60;;;1.90;;
46110;SDS011;31849;55.992;37.252;2022-07-29T06:05:17;3.72;;;1.85;;
46110;SDS011;31849;55.992;37.252;2022-07-29T06:10:20;6.78;;;1.73;;
46110;SDS011;31849;55.992;37.252;2022-07-29T06:15:27;4.22;;;1.50;;
46110;SDS011;31849;55.992;37.252;2022-07-29T06:20:32;3.55;;;1.50;;
46110;SDS011;31849;55.992;37.252;2022-07-29T06:25:35;2.13;;;1.50;;
46110;SDS011;31849;55.992;37.252;2022-07-29T06:30:39;2.80;;;1.52;;
46110;SDS011;31849;55.992;37.252;2022-07-29T06:35:44;3.28;;;1.40;;
46110;SDS011;31849;55.992;37.252;2022-07-29T06:40:55;2.70;;;1.50;;
46110;SDS011;31849;55.992;37.252;2022-07-29T06:46:07;3.63;;;1.75;;
46110;SDS011;31849;55.992;37.252;2022-07-29T06:51:13;3.25;;;1.60;;
46110;SDS011;31849;55.992;37.252;2022-07-29T06:56:23;3.75;;;1.55;;
46110;SDS011;31849;55.992;37.252;2022-07-29T07:01:27;3.03;;;1.90;;
46110;SDS011;31849;55.992;37.252;2022-07-29T07:06:32;4.15;;;2.60;;
46110;SDS011;31849;55.992;37.252;2022-07-29T07:11:36;2.65;;;1.70;;
46110;SDS011;31849;55.992;37.252;2022-07-29T07:16:39;4.72;;;1.85;;
46110;SDS011;31849;55.992;37.252;2022-07-29T07:21:44;3.15;;;1.70;;
46110;SDS011;31849;55.992;37.252;2022-07-29T07:26:48;2.88;;;1.70;;
46110;SDS011;31849;55.992;37.252;2022-07-29T07:31:51;3.65;;;1.50;;
46110;SDS011;31849;55.992;37.252;2022-07-29T07:37:02;3.00;;;1.53;;
46110;SDS011;31849;55.992;37.252;2022-07-29T07:42:06;3.35;;;1.50;;
46110;SDS011;31849;55.992;37.252;2022-07-29T07:47:12;2.25;;;1.20;;
46110;SDS011;31849;55.992;37.252;2022-07-29T07:52:17;3.70;;;1.50;;
46110;SDS011;31849;55.992;37.252;2022-07-29T07:57:22;1.80;;;1.40;;
46110;SDS011;31849;55.992;37.252;2022-07-29T08:02:26;3.47;;;1.30;;
46110;SDS011;31849;55.992;37.252;2022-07-29T08:07:31;2.53;;;1.52;;
46110;SDS011;31849;55.992;37.252;2022-07-29T08:12:35;2.42;;;1.50;;
46110;SDS011;31849;55.992;37.252;2022-07-29T08:17:38;3.95;;;1.20;;
46110;SDS011;31849;55.992;37.252;2022-07-29T08:22:45;2.13;;;1.30;;
46110;SDS011;31849;55.992;37.252;2022-07-29T08:27:48;1.98;;;1.20;;
46110;SDS011;31849;55.992;37.252;2022-07-29T08:32:52;3.58;;;1.38;;
46110;SDS011;31849;55.992;37.252;2022-07-29T08:37:58;2.35;;;1.02;;
46110;SDS011;31849;55.992;37.252;2022-07-29T08:43:06;2.35;;;1.20;;
46110;SDS011;31849;55.992;37.252;2022-07-29T08:48:11;3.00;;;1.00;;
46110;SDS011;31849;55.992;37.252;2022-07-29T08:53:17;2.50;;;0.90;;
46110;SDS011;31849;55.992;37.252;2022-07-29T08:58:21;3.67;;;1.17;;
46110;SDS011;31849;55.992;37.252;2022-07-29T09:03:29;2.13;;;1.00;;
46110;SDS011;31849;55.992;37.252;2022-07-29T09:08:35;2.45;;;0.82;;
46110;SDS011;31849;55.992;37.252;2022-07-29T09:13:39;2.47;;;1.10;;
46110;SDS011;31849;55.992;37.252;2022-07-29T09:18:43;3.05;;;0.95;;
46110;SDS011;31849;55.992;37.252;2022-07-29T09:24:05;2.20;;;0.85;;
46110;SDS011;31849;55.992;37.252;2022-07-29T09:29:10;3.53;;;0.95;;
46110;SDS011;31849;55.992;37.252;2022-07-29T09:34:16;1.95;;;0.90;;
46110;SDS011;31849;55.992;37.252;2022-07-29T09:39:29;2.92;;;1.20;;
46110;SDS011;31849;55.992;37.252;2022-07-29T09:44:46;1.77;;;1.05;;
46110;SDS011;31849;55.992;37.252;2022-07-29T09:49:52;3.15;;;0.98;;
46110;SDS011;31849;55.992;37.252;2022-07-29T09:55:05;3.38;;;1.98;;
46110;SDS011;31849;55.992;37.252;2022-07-29T10:00:12;3.92;;;1.00;;
46110;SDS011;31849;55.992;37.252;2022-07-29T10:05:18;3.80;;;0.98;;
46110;SDS011;31849;55.992;37.252;2022-07-29T10:10:25;5.00;;;1.10;;
46110;SDS011;31849;55.992;37.252;2022-07-29T10:15:31;2.85;;;0.80;;
46110;SDS011;31849;55.992;37.252;2022-07-29T10:20:38;2.08;;;0.80;;
46110;SDS011;31849;55.992;37.252;2022-07-29T10:25:44;2.53;;;1.00;;
46110;SDS011;31849;55.992;37.252;2022-07-29T10:30:48;1.90;;;0.98;;
46110;SDS011;31849;55.992;37.252;2022-07-29T10:35:59;2.53;;;0.90;;
46110;SDS011;31849;55.992;37.252;2022-07-29T10:41:18;3.13;;;0.88;;
46110;SDS011;31849;55.992;37.252;2022-07-29T10:46:45;2.85;;;1.02;;
46110;SDS011;31849;55.992;37.252;2022-07-29T10:52:02;3.97;;;1.10;;
46110;SDS011;31849;55.992;37.252;2022-07-29T10:57:15;2.40;;;0.90;;
46110;SDS011;31849;55.992;37.252;2022-07-29T11:02:44;2.83;;;1.02;;
46110;SDS011;31849;55.992;37.252;2022-07-29T11:13:47;2.50;;;0.95;;
46110;SDS011;31849;55.992;37.252;2022-07-29T11:24:30;2.60;;;0.90;;
46110;SDS011;31849;55.992;37.252;2022-07-29T11:29:38;5.75;;;1.10;;
46110;SDS011;31849;55.992;37.252;2022-07-29T11:40:18;2.22;;;1.00;;
46110;SDS011;31849;55.992;37.252;2022-07-29T11:45:44;2.00;;;1.00;;
46110;SDS011;31849;55.992;37.252;2022-07-29T11:50:48;3.00;;;0.90;;
46110;SDS011;31849;55.992;37.252;2022-07-29T11:55:54;4.20;;;1.10;;
46110;SDS011;31849;55.992;37.252;2022-07-29T12:01:00;1.90;;;0.95;;
46110;SDS011;31849;55.992;37.252;2022-07-29T12:06:11;3.13;;;0.90;;
46110;SDS011;31849;55.992;37.252;2022-07-29T12:11:19;2.33;;;1.05;;
46110;SDS011;31849;55.992;37.252;2022-07-29T12:16:33;2.75;;;1.10;;
46110;SDS011;31849;55.992;37.252;2022-07-29T12:21:44;1.95;;;1.00;;
46110;SDS011;31849;55.992;37.252;2022-07-29T12:26:57;2.20;;;1.10;;
46110;SDS011;31849;55.992;37.252;2022-07-29T12:32:04;5.15;;;1.10;;
46110;SDS011;31849;55.992;37.252;2022-07-29T12:37:20;2.33;;;0.85;;
46110;SDS011;31849;55.992;37.252;2022-07-29T12:48:12;2.60;;;0.80;;
46110;SDS011;31849;55.992;37.252;2022-07-29T12:53:16;1.60;;;0.80;;
46110;SDS011;31849;55.992;37.252;2022-07-29T12:58:26;2.75;;;1.10;;
46110;SDS011;31849;55.992;37.252;2022-07-29T13:03:45;2.28;;;1.30;;
46110;SDS011;31849;55.992;37.252;2022-07-29T13:08:58;2.58;;;1.10;;
46110;SDS011;31849;55.992;37.252;2022-07-29T13:14:10;3.10;;;1.10;;
46110;SDS011;31849;55.992;37.252;2022-07-29T13:19:16;3.25;;;1.10;;
46110;SDS011;31849;55.992;37.252;2022-07-29T13:24:20;3.08;;;1.10;;
46110;SDS011;31849;55.992;37.252;2022-07-29T13:29:23;2.80;;;1.00;;
46110;SDS011;31849;55.992;37.252;2022-07-29T13:34:33;3.10;;;1.30;;
46110;SDS011;31849;55.992;37.252;2022-07-29T13:39:36;3.00;;;1.08;;
46110;SDS011;31849;55.992;37.252;2022-07-29T13:49:45;2.97;;;1.17;;
46110;SDS011;31849;55.992;37.252;2022-07-29T13:54:49;3.10;;;1.00;;
46110;SDS011;31849;55.992;37.252;2022-07-29T14:04:57;2.63;;;1.00;;
46110;SDS011;31849;55.992;37.252;2022-07-29T14:10:05;5.78;;;1.08;;
46110;SDS011;31849;55.992;37.252;2022-07-29T14:15:09;2.55;;;1.20;;
46110;SDS011;31849;55.992;37.252;2022-07-29T14:20:14;1.98;;;1.08;;
46110;SDS011;31849;55.992;37.252;2022-07-29T14:25:18;4.72;;;1.08;;
46110;SDS011;31849;55.992;37.252;2022-07-29T14:30:24;2.20;;;1.13;;
46110;SDS011;31849;55.992;37.252;2022-07-29T14:35:28;2.60;;;1.05;;
46110;SDS011;31849;55.992;37.252;2022-07-29T14:40:32;2.78;;;1.10;;
46110;SDS011;31849;55.992;37.252;2022-07-29T14:45:35;1.80;;;1.00;;
46110;SDS011;31849;55.992;37.252;2022-07-29T14:50:40;2.15;;;1.10;;
46110;SDS011;31849;55.992;37.252;2022-07-29T14:55:44;3.13;;;1.20;;
46110;SDS011;31849;55.992;37.252;2022-07-29T15:05:52;2.90;;;1.10;;
46110;SDS011;31849;55.992;37.252;2022-07-29T15:10:56;5.68;;;1.25;;
46110;SDS011;31849;55.992;37.252;2022-07-29T15:16:01;3.13;;;1.17;;
46110;SDS011;31849;55.992;37.252;2022-07-29T15:21:06;3.90;;;1.58;;
46110;SDS011;31849;55.992;37.252;2022-07-29T15:26:10;3.78;;;1.35;;
46110;SDS011;31849;55.992;37.252;2022-07-29T15:31:13;3.05;;;1.50;;
46110;SDS011;31849;55.992;37.252;2022-07-29T15:36:18;5.25;;;1.80;;
46110;SDS011;31849;55.992;37.252;2022-07-29T15:41:41;6.63;;;1.70;;
46110;SDS011;31849;55.992;37.252;2022-07-29T15:46:45;4.65;;;1.98;;
46110;SDS011;31849;55.992;37.252;2022-07-29T15:52:09;4.75;;;2.20;;
46110;SDS011;31849;55.992;37.252;2022-07-29T15:57:13;4.22;;;2.00;;
46110;SDS011;31849;55.992;37.252;2022-07-29T16:02:16;3.30;;;1.80;;
46110;SDS011;31849;55.992;37.252;2022-07-29T16:07:21;4.43;;;1.80;;
46110;SDS011;31849;55.992;37.252;2022-07-29T16:12:32;3.58;;;1.50;;
46110;SDS011;31849;55.992;37.252;2022-07-29T16:17:35;3.20;;;1.70;;
46110;SDS011;31849;55.992;37.252;2022-07-29T16:22:40;3.92;;;1.40;;
46110;SDS011;31849;55.992;37.252;2022-07-29T16:27:44;4.20;;;1.80;;
46110;SDS011;31849;55.992;37.252;2022-07-29T16:32:47;6.13;;;1.90;;
46110;SDS011;31849;55.992;37.252;2022-07-29T16:37:52;5.80;;;1.77;;
46110;SDS011;31849;55.992;37.252;2022-07-29T16:42:55;4.80;;;1.83;;
46110;SDS011;31849;55.992;37.252;2022-07-29T16:47:58;5.37;;;1.93;;
46110;SDS011;31849;55.992;37.252;2022-07-29T16:53:05;3.35;;;1.60;;
46110;SDS011;31849;55.992;37.252;2022-07-29T16:58:10;2.60;;;1.50;;
46110;SDS011;31849;55.992;37.252;2022-07-29T17:03:13;3.05;;;1.45;;
46110;SDS011;31849;55.992;37.252;2022-07-29T17:08:18;5.00;;;1.47;;
46110;SDS011;31849;55.992;37.252;2022-07-29T17:13:21;3.60;;;1.52;;
46110;SDS011;31849;55.992;37.252;2022-07-29T17:18:25;2.63;;;1.30;;
46110;SDS011;31849;55.992;37.252;2022-07-29T17:23:30;5.45;;;1.70;;
46110;SDS011;31849;55.992;37.252;2022-07-29T17:28:33;6.63;;;1.80;;
46110;SDS011;31849;55.992;37.252;2022-07-29T17:33:37;5.00;;;2.65;;
46110;SDS011;31849;55.992;37.252;2022-07-29T17:38:41;3.53;;;2.00;;
46110;SDS011;31849;55.992;37.252;2022-07-29T17:43:45;3.00;;;1.70;;
46110;SDS011;31849;55.992;37.252;2022-07-29T17:48:49;2.92;;;1.70;;
46110;SDS011;31849;55.992;37.252;2022-07-29T17:53:54;3.33;;;1.63;;
46110;SDS011;31849;55.992;37.252;2022-07-29T17:58:58;3.92;;;1.92;;
46110;SDS011;31849;55.992;37.252;2022-07-29T18:04:07;3.75;;;2.00;;
46110;SDS011;31849;55.992;37.252;2022-07-29T18:09:12;3.90;;;2.08;;
46110;SDS011;31849;55.992;37.252;2022-07-29T18:14:15;3.85;;;2.10;;
46110;SDS011;31849;55.992;37.252;2022-07-29T18:19:18;4.93;;;2.20;;
46110;SDS011;31849;55.992;37.252;2022-07-29T18:24:23;3.93;;;2.03;;
46110;SDS011;31849;55.992;37.252;2022-07-29T18:29:29;4.63;;;2.00;;
46110;SDS011;31849;55.992;37.252;2022-07-29T18:34:33;3.20;;;2.00;;
46110;SDS011;31849;55.992;37.252;2022-07-29T18:39:37;4.20;;;1.60;;
46110;SDS011;31849;55.992;37.252;2022-07-29T18:44:41;3.55;;;1.70;;
46110;SDS011;31849;55.992;37.252;2022-07-29T18:49:49;3.40;;;1.45;;
46110;SDS011;31849;55.992;37.252;2022-07-29T18:54:54;3.33;;;1.70;;
46110;SDS011;31849;55.992;37.252;2022-07-29T18:59:57;3.60;;;1.60;;
46110;SDS011;31849;55.992;37.252;2022-07-29T19:05:01;3.03;;;1.80;;
46110;SDS011;31849;55.992;37.252;2022-07-29T19:10:06;4.50;;;2.33;;
46110;SDS011;31849;55.992;37.252;2022-07-29T19:15:11;3.55;;;1.90;;
46110;SDS011;31849;55.992;37.252;2022-07-29T19:20:21;3.58;;;1.85;;
46110;SDS011;31849;55.992;37.252;2022-07-29T19:25:26;3.93;;;1.70;;
46110;SDS011;31849;55.992;37.252;2022-07-29T19:30:30;4.28;;;1.83;;
46110;SDS011;31849;55.992;37.252;2022-07-29T19:35:33;2.87;;;1.53;;
46110;SDS011;31849;55.992;37.252;2022-07-29T19:40:38;3.05;;;1.50;;
46110;SDS011;31849;55.992;37.252;2022-07-29T19:45:42;3.75;;;1.65;;
46110;SDS011;31849;55.992;37.252;2022-07-29T19:55:51;2.97;;;1.60;;
46110;SDS011;31849;55.992;37.252;2022-07-29T20:00:54;3.33;;;1.58;;
46110;SDS011;31849;55.992;37.252;2022-07-29T20:05:58;5.05;;;1.88;;
46110;SDS011;31849;55.992;37.252;2022-07-29T20:11:02;3.25;;;1.40;;
46110;SDS011;31849;55.992;37.252;2022-07-29T20:16:06;2.33;;;1.48;;
46110;SDS011;31849;55.992;37.252;2022-07-29T20:21:10;2.90;;;1.40;;
46110;SDS011;31849;55.992;37.252;2022-07-29T20:26:14;2.95;;;1.42;;
46110;SDS011;31849;55.992;37.252;2022-07-29T20:31:19;4.03;;;1.88;;
46110;SDS011;31849;55.992;37.252;2022-07-29T20:36:22;5.37;;;1.73;;
46110;SDS011;31849;55.992;37.252;2022-07-29T20:41:27;2.53;;;1.60;;
46110;SDS011;31849;55.992;37.252;2022-07-29T20:46:31;3.75;;;1.60;;
46110;SDS011;31849;55.992;37.252;2022-07-29T20:51:34;3.28;;;1.77;;
46110;SDS011;31849;55.992;37.252;2022-07-29T20:56:45;3.03;;;1.40;;
46110;SDS011;31849;55.992;37.252;2022-07-29T21:01:49;2.88;;;1.40;;
46110;SDS011;31849;55.992;37.252;2022-07-29T21:06:52;2.55;;;1.40;;
46110;SDS011;31849;55.992;37.252;2022-07-29T21:11:57;2.28;;;1.40;;
46110;SDS011;31849;55.992;37.252;2022-07-29T21:17:01;3.88;;;1.40;;
46110;SDS011;31849;55.992;37.252;2022-07-29T21:22:06;3.35;;;1.45;;
46110;SDS011;31849;55.992;37.252;2022-07-29T21:27:11;3.30;;;1.50;;
46110;SDS011;31849;55.992;37.252;2022-07-29T21:32:32;4.68;;;1.55;;
46110;SDS011;31849;55.992;37.252;2022-07-29T21:37:35;2.42;;;1.45;;
46110;SDS011;31849;55.992;37.252;2022-07-29T21:42:40;2.85;;;1.60;;
46110;SDS011;31849;55.992;37.252;2022-07-29T21:47:46;3.30;;;1.60;;
46110;SDS011;31849;55.992;37.252;2022-07-29T21:52:49;2.70;;;1.40;;
46110;SDS011;31849;55.992;37.252;2022-07-29T21:57:54;2.55;;;1.40;;
46110;SDS011;31849;55.992;37.252;2022-07-29T22:02:58;2.80;;;1.40;;
46110;SDS011;31849;55.992;37.252;2022-07-29T22:08:02;5.45;;;1.55;;
46110;SDS011;31849;55.992;37.252;2022-07-29T22:13:07;2.77;;;1.40;;
46110;SDS011;31849;55.992;37.252;2022-07-29T22:18:10;7.25;;;1.70;;
46110;SDS011;31849;55.992;37.252;2022-07-29T22:23:21;2.85;;;1.70;;
46110;SDS011;31849;55.992;37.252;2022-07-29T22:28:26;4.57;;;1.70;;
46110;SDS011;31849;55.992;37.252;2022-07-29T22:33:29;4.22;;;1.60;;
46110;SDS011;31849;55.992;37.252;2022-07-29T22:38:32;3.40;;;1.50;;
46110;SDS011;31849;55.992;37.252;2022-07-29T22:43:38;2.28;;;1.50;;
46110;SDS011;31849;55.992;37.252;2022-07-29T22:48:41;4.32;;;1.70;;
46110;SDS011;31849;55.992;37.252;2022-07-29T22:53:45;3.58;;;1.58;;
46110;SDS011;31849;55.992;37.252;2022-07-29T22:58:50;3.97;;;1.70;;
46110;SDS011;31849;55.992;37.252;2022-07-29T23:03:55;3.00;;;1.80;;
46110;SDS011;31849;55.992;37.252;2022-07-29T23:08:59;4.20;;;1.80;;
46110;SDS011;31849;55.992;37.252;2022-07-29T23:14:04;4.72;;;2.00;;
46110;SDS011;31849;55.992;37.252;2022-07-29T23:19:10;2.80;;;1.52;;
46110;SDS011;31849;55.992;37.252;2022-07-29T23:24:13;2.65;;;1.60;;
46110;SDS011;31849;55.992;37.252;2022-07-29T23:29:18;3.60;;;1.67;;
46110;SDS011;31849;55.992;37.252;2022-07-29T23:34:21;3.58;;;1.52;;
46110;SDS011;31849;55.992;37.252;2022-07-29T23:39:24;4.07;;;1.50;;
46110;SDS011;31849;55.992;37.252;2022-07-29T23:44:29;5.40;;;1.70;;
46110;SDS011;31849;55.992;37.252;2022-07-29T23:49:32;2.85;;;1.73;;
46110;SDS011;31849;55.992;37.252;2022-07-29T23:54:36;3.92;;;1.50;;
46110;SDS011;31849;55.992;37.252;2022-07-29T23:59:41;3.50;;;1.52;;
